Time;durP1;ratioP1;P1;durP2;ratioP2;P2;SDS_P1;SDS_P2;PMS_P1;PMS_P2;Temp;Humidity;BMP_temperature;BMP_pressure;BME280_temperature;BME280_humidity;BME280_pressure;Samples;Min_cycle;Max_cycle;Signal;HPM_P1;HPM_P2
2022/11/07 00:00:35;;;;;;;0.70;0.40;;;10.80;92.70;;;;;;5117087;28;20436;-72
2022/11/07 00:03:03;;;;;;;1.10;0.30;;;10.70;94.90;;;;;;5107561;28;20471;-72
2022/11/07 00:05:31;;;;;;;0.60;0.30;;;10.70;99.90;;;;;;5116747;28;20415;-72
2022/11/07 00:07:58;;;;;;;0.50;0.30;;;10.80;97.70;;;;;;5116229;28;20463;-72
2022/11/07 00:10:25;;;;;;;0.50;0.30;;;10.90;96.70;;;;;;5116642;28;20795;-72
2022/11/07 00:12:52;;;;;;;0.60;0.30;;;11.10;77.90;;;;;;5116175;28;20462;-72
2022/11/07 00:15:19;;;;;;;0.40;0.20;;;11.20;62.60;;;;;;5116255;28;20820;-72
2022/11/07 00:17:45;;;;;;;0.40;0.28;;;11.20;64.30;;;;;;5116742;28;20436;-72
2022/11/07 00:20:12;;;;;;;0.77;0.30;;;11.10;76.60;;;;;;5117581;28;20459;-72
2022/11/07 00:22:41;;;;;;;0.80;0.30;;;11.00;84.20;;;;;;5120471;28;20752;-72
2022/11/07 00:25:08;;;;;;;0.60;0.30;;;11.00;89.50;;;;;;5119979;28;20416;-72
2022/11/07 00:27:35;;;;;;;0.70;0.30;;;10.90;95.80;;;;;;5120062;28;20433;-72
2022/11/07 00:30:02;;;;;;;1.90;0.20;;;11.00;99.90;;;;;;5120418;28;20458;-73
2022/11/07 00:32:29;;;;;;;0.60;0.30;;;11.00;98.60;;;;;;5120478;28;20412;-72
2022/11/07 00:34:56;;;;;;;0.52;0.30;;;11.00;99.90;;;;;;5120458;28;20431;-73
2022/11/07 00:37:23;;;;;;;0.60;0.30;;;11.00;99.90;;;;;;5120501;28;20412;-73
2022/11/07 00:39:51;;;;;;;0.53;0.20;;;10.90;99.90;;;;;;5120265;28;20466;-72
2022/11/07 00:42:18;;;;;;;0.50;0.30;;;10.90;99.90;;;;;;5120042;28;20431;-73
2022/11/07 00:44:45;;;;;;;0.50;0.30;;;10.90;99.90;;;;;;5120204;28;20803;-72
2022/11/07 00:47:12;;;;;;;0.40;0.20;;;10.90;99.90;;;;;;5119878;28;20854;-73
2022/11/07 00:49:39;;;;;;;0.50;0.30;;;11.00;99.90;;;;;;5120657;28;20427;-73
2022/11/07 00:52:06;;;;;;;0.40;0.20;;;11.00;99.90;;;;;;5119650;28;20887;-72
2022/11/07 00:54:33;;;;;;;0.50;0.20;;;10.90;99.90;;;;;;5118547;28;20456;-73
2022/11/07 00:57:01;;;;;;;0.40;0.20;;;10.90;99.90;;;;;;5117813;28;20452;-72
2022/11/07 00:59:28;;;;;;;0.40;0.20;;;11.00;99.90;;;;;;5116898;28;20535;-73
2022/11/07 01:01:55;;;;;;;0.40;0.20;;;11.00;99.90;;;;;;5118823;28;20452;-71
2022/11/07 01:07:06;;;;;;;0.60;0.20;;;11.10;99.90;;;;;;5116265;28;20396;-72
2022/11/07 01:09:33;;;;;;;0.50;0.20;;;11.00;99.90;;;;;;5116597;28;20431;-73
2022/11/07 01:12:02;;;;;;;0.50;0.20;;;10.90;99.90;;;;;;5109210;28;20495;-72
2022/11/07 01:14:29;;;;;;;0.40;0.20;;;10.80;99.90;;;;;;5118690;28;20509;-73
2022/11/07 01:16:56;;;;;;;0.50;0.20;;;10.80;99.90;;;;;;5118587;28;20420;-72
2022/11/07 01:19:23;;;;;;;0.40;0.20;;;10.70;99.90;;;;;;5118237;28;20420;-72
2022/11/07 01:21:50;;;;;;;0.50;0.30;;;10.70;99.90;;;;;;5119298;28;20848;-72
2022/11/07 01:24:18;;;;;;;0.50;0.20;;;10.60;99.90;;;;;;5119035;28;20701;-72
2022/11/07 01:26:46;;;;;;;0.70;0.30;;;10.70;99.90;;;;;;5117625;28;20447;-72
2022/11/07 01:29:15;;;;;;;0.50;0.20;;;10.70;99.90;;;;;;5119132;28;20515;-73
2022/11/07 01:31:42;;;;;;;0.43;0.30;;;10.70;99.90;;;;;;5117690;28;20404;-73
2022/11/07 01:34:09;;;;;;;0.60;0.30;;;10.70;99.90;;;;;;5118470;28;20440;-73
2022/11/07 01:36:37;;;;;;;0.50;0.30;;;10.70;99.90;;;;;;5118854;28;20458;-74
2022/11/07 01:39:04;;;;;;;0.40;0.20;;;10.70;99.90;;;;;;5119548;28;20451;-72
2022/11/07 01:41:33;;;;;;;0.50;0.30;;;10.60;99.90;;;;;;5119188;28;20512;-73
2022/11/07 01:44:03;;;;;;;0.40;0.30;;;10.60;99.90;;;;;;5110543;28;20471;-73
2022/11/07 01:46:34;;;;;;;0.50;0.30;;;10.60;99.90;;;;;;5117997;28;20543;-73
2022/11/07 01:49:09;;;;;;;0.40;0.30;;;10.60;99.90;;;;;;5118609;28;20478;-73
2022/11/07 01:51:42;;;;;;;0.50;0.30;;;10.60;99.90;;;;;;5118392;28;20773;-72
2022/11/07 01:54:10;;;;;;;0.43;0.20;;;10.50;99.90;;;;;;5117777;28;20425;-72
2022/11/07 01:56:41;;;;;;;0.50;0.20;;;10.60;99.90;;;;;;5118205;28;20828;-72
2022/11/07 01:59:10;;;;;;;0.50;0.30;;;10.60;99.90;;;;;;5118853;28;20432;-72
2022/11/07 02:01:39;;;;;;;1.00;0.40;;;10.60;99.90;;;;;;5118923;28;20424;-73
2022/11/07 02:04:06;;;;;;;0.52;0.30;;;10.60;99.90;;;;;;5118382;28;20428;-73
2022/11/07 02:06:41;;;;;;;0.40;0.20;;;10.70;99.90;;;;;;5117965;28;20737;-72
2022/11/07 02:09:08;;;;;;;0.80;0.30;;;10.70;99.90;;;;;;5117231;28;20424;-72
2022/11/07 02:11:36;;;;;;;0.55;0.30;;;10.70;99.90;;;;;;5116845;28;20455;-73
2022/11/07 02:14:03;;;;;;;1.20;0.30;;;10.80;99.90;;;;;;5117783;28;20558;-72
2022/11/07 02:16:31;;;;;;;0.50;0.30;;;10.70;99.90;;;;;;5117412;28;20854;-72
2022/11/07 02:19:00;;;;;;;0.52;0.30;;;10.70;99.90;;;;;;5117524;28;20458;-72
2022/11/07 02:21:38;;;;;;;0.50;0.20;;;10.70;99.90;;;;;;5115765;28;20504;-73
2022/11/07 02:24:15;;;;;;;0.50;0.30;;;10.70;99.90;;;;;;5117743;28;20485;-73
2022/11/07 02:26:43;;;;;;;1.25;0.30;;;10.80;99.90;;;;;;5117740;28;20451;-72
2022/11/07 02:29:12;;;;;;;0.70;0.30;;;10.90;99.90;;;;;;5117726;28;20428;-73
2022/11/07 02:31:38;;;;;;;0.60;0.30;;;10.90;99.90;;;;;;5117998;28;20448;-73
2022/11/07 02:34:05;;;;;;;0.80;0.30;;;10.90;99.90;;;;;;5118304;28;20464;-72
2022/11/07 02:36:33;;;;;;;0.40;0.30;;;10.90;99.90;;;;;;5117790;28;20416;-73
2022/11/07 02:39:00;;;;;;;0.60;0.30;;;11.00;99.90;;;;;;5117702;28;20466;-73
2022/11/07 02:41:31;;;;;;;0.80;0.30;;;11.00;99.90;;;;;;5117340;28;20455;-72
2022/11/07 02:44:01;;;;;;;0.50;0.30;;;11.00;99.90;;;;;;5116792;28;20432;-72
2022/11/07 02:46:31;;;;;;;0.55;0.30;;;11.00;99.90;;;;;;5116628;28;20463;-72
2022/11/07 02:48:59;;;;;;;0.40;0.30;;;11.10;99.90;;;;;;5117736;28;20526;-72
2022/11/07 02:51:28;;;;;;;0.60;0.30;;;11.10;99.90;;;;;;5117813;28;20416;-73
2022/11/07 02:53:55;;;;;;;0.60;0.30;;;11.10;99.90;;;;;;5117492;28;20504;-73
2022/11/07 02:56:23;;;;;;;0.60;0.40;;;11.20;99.90;;;;;;5117299;28;20485;-73
2022/11/07 02:58:52;;;;;;;0.40;0.30;;;11.20;99.90;;;;;;5116155;28;20424;-73
2022/11/07 03:01:20;;;;;;;1.20;0.30;;;11.20;99.90;;;;;;5116866;28;20472;-73
2022/11/07 03:03:50;;;;;;;1.00;0.30;;;11.10;99.90;;;;;;5116992;28;20436;-72
2022/11/07 03:06:18;;;;;;;0.50;0.30;;;11.10;99.90;;;;;;5117170;28;20455;-72
2022/11/07 03:08:45;;;;;;;0.40;0.20;;;11.10;99.90;;;;;;5116659;28;20428;-72
2022/11/07 03:11:13;;;;;;;0.40;0.28;;;11.20;99.90;;;;;;5117156;28;20444;-72
2022/11/07 03:13:40;;;;;;;0.50;0.30;;;11.30;99.90;;;;;;5117036;28;20456;-73
2022/11/07 03:16:10;;;;;;;0.50;0.30;;;11.50;99.90;;;;;;5116855;28;20442;-71
2022/11/07 03:18:38;;;;;;;1.40;0.22;;;11.40;99.90;;;;;;5116569;28;20847;-72
2022/11/07 03:21:06;;;;;;;0.50;0.30;;;11.50;99.90;;;;;;5116754;28;20839;-72
2022/11/07 03:23:34;;;;;;;0.43;0.30;;;11.50;99.90;;;;;;5116685;28;20524;-73
2022/11/07 03:26:01;;;;;;;0.50;0.30;;;11.50;99.90;;;;;;5116234;28;20444;-72
2022/11/07 03:28:28;;;;;;;0.60;0.30;;;11.40;99.90;;;;;;5116266;28;20423;-72
2022/11/07 03:30:55;;;;;;;0.90;0.30;;;11.40;99.90;;;;;;5116085;28;20839;-72
2022/11/07 03:33:23;;;;;;;0.52;0.30;;;11.40;99.90;;;;;;5116707;28;20460;-72
2022/11/07 03:35:50;;;;;;;0.47;0.30;;;11.40;99.90;;;;;;5116236;28;20489;-72
2022/11/07 03:38:17;;;;;;;0.80;0.30;;;11.40;99.90;;;;;;5116242;28;20439;-72
2022/11/07 03:40:45;;;;;;;0.50;0.30;;;11.40;99.90;;;;;;5116416;28;20407;-72
2022/11/07 03:43:12;;;;;;;0.50;0.30;;;11.40;99.90;;;;;;5115837;28;20463;-72
2022/11/07 03:45:39;;;;;;;0.50;0.30;;;11.40;99.90;;;;;;5114184;28;20918;-72
2022/11/07 03:48:06;;;;;;;0.70;0.30;;;11.40;99.90;;;;;;5114508;28;20790;-72
2022/11/07 03:50:35;;;;;;;0.50;0.30;;;11.40;99.90;;;;;;5114673;28;20455;-72
2022/11/07 03:53:02;;;;;;;0.50;0.30;;;11.40;99.90;;;;;;5114153;28;20785;-72
2022/11/07 03:55:29;;;;;;;0.50;0.30;;;11.50;99.90;;;;;;5113764;28;20476;-72
2022/11/07 03:57:56;;;;;;;0.50;0.20;;;11.50;99.90;;;;;;5114767;28;20516;-73
2022/11/07 04:00:23;;;;;;;0.50;0.30;;;11.50;99.90;;;;;;5115443;28;20416;-73
2022/11/07 04:02:50;;;;;;;0.70;0.40;;;11.50;99.90;;;;;;5116541;28;20495;-72
2022/11/07 04:05:17;;;;;;;0.50;0.30;;;11.50;99.90;;;;;;5115749;28;20524;-71
2022/11/07 04:07:46;;;;;;;0.50;0.30;;;11.50;99.90;;;;;;5115570;28;20617;-72
2022/11/07 04:10:13;;;;;;;1.00;0.40;;;11.40;99.90;;;;;;5116311;28;20454;-72
2022/11/07 04:18:09;;;;;;;0.40;0.20;;;11.20;99.90;;;;;;5116017;28;20680;-71
2022/11/07 04:20:36;;;;;;;0.50;0.30;;;11.10;99.90;;;;;;5116165;28;20719;-72
2022/11/07 04:23:04;;;;;;;0.68;0.30;;;11.20;99.90;;;;;;5115961;28;20461;-72
2022/11/07 04:28:16;;;;;;;0.65;0.30;;;11.30;99.90;;;;;;5115488;28;20720;-73
2022/11/07 04:30:43;;;;;;;0.50;0.30;;;11.30;99.90;;;;;;5115194;28;20459;-72
2022/11/07 04:33:10;;;;;;;0.50;0.30;;;11.30;99.90;;;;;;5116617;28;20513;-72
2022/11/07 04:35:37;;;;;;;0.60;0.30;;;11.20;99.90;;;;;;5116730;28;20443;-73
2022/11/07 04:38:05;;;;;;;0.75;0.30;;;11.20;99.90;;;;;;5115460;28;20772;-72
2022/11/07 04:40:32;;;;;;;0.50;0.30;;;11.30;99.90;;;;;;5116269;28;20444;-72
2022/11/07 04:42:59;;;;;;;0.50;0.30;;;11.20;99.90;;;;;;5115623;28;20796;-72
2022/11/07 04:45:26;;;;;;;0.50;0.30;;;11.20;99.90;;;;;;5116263;28;20463;-72
2022/11/07 04:47:53;;;;;;;0.50;0.30;;;11.20;99.90;;;;;;5115683;28;20455;-72
2022/11/07 04:50:20;;;;;;;0.60;0.30;;;11.10;99.90;;;;;;5115782;28;20785;-71
2022/11/07 04:52:48;;;;;;;0.60;0.30;;;11.10;99.90;;;;;;5115151;28;20769;-72
2022/11/07 04:55:24;;;;;;;2.17;0.70;;;11.00;99.90;;;;;;5115871;28;20471;-72
2022/11/07 04:57:51;;;;;;;0.70;0.30;;;11.00;99.90;;;;;;5115760;28;20859;-72
2022/11/07 05:00:21;;;;;;;0.93;0.30;;;11.00;99.90;;;;;;5115478;28;20776;-72
2022/11/07 05:02:49;;;;;;;0.50;0.30;;;10.90;99.90;;;;;;5115054;28;20473;-72
2022/11/07 05:05:17;;;;;;;0.50;0.30;;;11.00;99.90;;;;;;5115131;28;20429;-72
2022/11/07 05:07:44;;;;;;;0.60;0.30;;;11.00;99.90;;;;;;5118349;28;20462;-73
2022/11/07 05:10:18;;;;;;;0.80;0.30;;;11.10;99.90;;;;;;5119835;28;20905;-72
2022/11/07 05:12:47;;;;;;;0.60;0.30;;;11.00;99.90;;;;;;5119863;28;20580;-72
2022/11/07 05:15:15;;;;;;;0.90;0.30;;;11.00;99.90;;;;;;5119469;28;20412;-72
2022/11/07 05:17:42;;;;;;;1.08;0.30;;;10.90;99.90;;;;;;5119297;28;20489;-72
2022/11/07 05:20:22;;;;;;;0.60;0.30;;;10.90;99.90;;;;;;5119169;28;20416;-72
2022/11/07 05:25:33;;;;;;;0.70;0.30;;;10.80;99.90;;;;;;5118969;28;20415;-72
2022/11/07 05:28:01;;;;;;;0.70;0.30;;;10.80;99.90;;;;;;5119041;28;20739;-73
2022/11/07 05:30:28;;;;;;;0.50;0.20;;;10.80;99.90;;;;;;5118499;28;20525;-73
2022/11/07 05:32:55;;;;;;;0.60;0.30;;;10.80;99.90;;;;;;5118685;28;20486;-72
2022/11/07 05:35:22;;;;;;;3.22;0.30;;;10.80;99.90;;;;;;5119396;28;20412;-72
2022/11/07 05:37:49;;;;;;;0.60;0.30;;;10.80;99.90;;;;;;5118724;28;20751;-73
2022/11/07 05:40:16;;;;;;;0.50;0.35;;;10.80;99.90;;;;;;5118147;28;20456;-72
2022/11/07 05:42:43;;;;;;;0.80;0.30;;;10.80;99.90;;;;;;5118383;28;20428;-72
2022/11/07 05:45:12;;;;;;;0.50;0.30;;;10.80;99.90;;;;;;5118357;28;20474;-72
2022/11/07 05:47:40;;;;;;;0.50;0.30;;;10.80;99.90;;;;;;5118275;28;20898;-72
2022/11/07 05:50:08;;;;;;;0.77;0.30;;;10.80;99.90;;;;;;5118297;28;20452;-71
2022/11/07 05:52:35;;;;;;;1.25;0.30;;;10.80;99.90;;;;;;5117416;28;20412;-72
2022/11/07 05:55:02;;;;;;;0.70;0.30;;;10.90;99.90;;;;;;5116970;28;20420;-72
2022/11/07 05:57:30;;;;;;;0.60;0.30;;;11.00;99.90;;;;;;5117541;28;20444;-73
2022/11/07 05:59:57;;;;;;;0.50;0.30;;;11.10;99.90;;;;;;5117220;28;20519;-73
2022/11/07 06:02:25;;;;;;;0.80;0.30;;;11.10;99.90;;;;;;5114823;28;20750;-72
2022/11/07 06:04:52;;;;;;;1.00;0.30;;;11.00;99.90;;;;;;5115113;28;20427;-73
2022/11/07 06:07:19;;;;;;;0.70;0.40;;;10.90;99.90;;;;;;5114168;28;20416;-72
2022/11/07 06:09:46;;;;;;;1.10;0.30;;;10.90;99.90;;;;;;5113992;28;20782;-72
2022/11/07 06:12:13;;;;;;;0.52;0.30;;;10.90;99.90;;;;;;5114442;28;20427;-72
2022/11/07 06:14:40;;;;;;;0.75;0.30;;;10.90;99.90;;;;;;5115627;28;20460;-72
2022/11/07 06:17:07;;;;;;;0.70;0.40;;;10.90;99.90;;;;;;5117504;28;20452;-72
2022/11/07 06:19:41;;;;;;;0.70;0.40;;;11.00;99.90;;;;;;5116173;28;20843;-72
2022/11/07 06:22:08;;;;;;;1.30;0.40;;;11.00;99.90;;;;;;5117045;28;21000;-72
2022/11/07 06:24:35;;;;;;;0.60;0.30;;;11.10;99.90;;;;;;5117333;28;20424;-71
2022/11/07 06:27:02;;;;;;;1.00;0.40;;;11.10;99.90;;;;;;5117449;28;20473;-72
2022/11/07 06:29:29;;;;;;;0.95;0.40;;;11.20;99.90;;;;;;5117089;28;20428;-71
2022/11/07 06:31:56;;;;;;;0.70;0.50;;;11.40;99.90;;;;;;5116792;28;20489;-71
2022/11/07 06:34:24;;;;;;;0.70;0.40;;;11.50;99.90;;;;;;5116566;28;20729;-72
2022/11/07 06:36:54;;;;;;;0.80;0.30;;;11.70;99.90;;;;;;5116948;28;20475;-72
2022/11/07 06:39:21;;;;;;;0.90;0.30;;;11.70;99.90;;;;;;5115463;28;20435;-72
2022/11/07 06:41:49;;;;;;;0.80;0.30;;;11.70;99.90;;;;;;5116683;28;20456;-72
2022/11/07 06:44:16;;;;;;;1.23;0.30;;;11.80;99.90;;;;;;5116139;28;20436;-72
2022/11/07 06:46:45;;;;;;;1.00;0.30;;;11.70;99.90;;;;;;5115263;28;21037;-72
2022/11/07 06:49:12;;;;;;;0.63;0.30;;;11.70;99.90;;;;;;5116944;28;20428;-73
2022/11/07 06:51:39;;;;;;;0.50;0.30;;;11.80;99.90;;;;;;5116934;28;20420;-72
2022/11/07 06:54:08;;;;;;;2.40;0.40;;;11.90;99.90;;;;;;5117266;28;20481;-73
2022/11/07 06:56:35;;;;;;;1.10;0.30;;;11.90;99.90;;;;;;5117035;28;20824;-72
2022/11/07 06:59:02;;;;;;;0.52;0.32;;;11.90;99.90;;;;;;5116872;28;20424;-72
2022/11/07 07:01:29;;;;;;;0.40;0.30;;;12.00;99.90;;;;;;5115883;28;20466;-72
2022/11/07 07:03:59;;;;;;;0.60;0.30;;;12.00;99.90;;;;;;5117469;28;20473;-73
2022/11/07 07:06:26;;;;;;;1.30;0.30;;;12.00;99.90;;;;;;5117239;28;20498;-71
2022/11/07 07:08:53;;;;;;;0.82;0.40;;;12.00;99.90;;;;;;5116957;28;20428;-72
2022/11/07 07:11:21;;;;;;;0.80;0.40;;;12.00;99.90;;;;;;5117235;28;20429;-72
2022/11/07 07:13:48;;;;;;;1.50;0.40;;;12.00;99.90;;;;;;5117136;28;20420;-71
2022/11/07 07:16:15;;;;;;;0.70;0.40;;;12.00;99.90;;;;;;5115506;28;20452;-72
2022/11/07 07:18:42;;;;;;;0.80;0.40;;;12.00;99.90;;;;;;5116261;28;20459;-73
2022/11/07 07:21:10;;;;;;;0.88;0.50;;;12.00;99.90;;;;;;5116736;28;20476;-72
2022/11/07 07:23:38;;;;;;;1.40;0.40;;;12.00;99.90;;;;;;5116667;28;20911;-73
2022/11/07 07:26:07;;;;;;;1.70;0.40;;;12.00;99.90;;;;;;5115425;28;20511;-72
2022/11/07 07:28:36;;;;;;;1.40;0.40;;;12.00;99.90;;;;;;5114979;28;20480;-73
2022/11/07 07:31:10;;;;;;;1.40;0.30;;;12.00;99.90;;;;;;5114795;28;20439;-73
2022/11/07 07:33:37;;;;;;;1.60;0.40;;;12.00;99.90;;;;;;5114643;28;20540;-72
2022/11/07 07:36:05;;;;;;;2.30;0.50;;;12.10;99.90;;;;;;5113774;28;20455;-72
2022/11/07 07:38:33;;;;;;;1.20;0.40;;;12.00;99.90;;;;;;5114907;28;20431;-72
2022/11/07 07:41:00;;;;;;;0.70;0.40;;;12.00;99.90;;;;;;5115251;28;20897;-72
2022/11/07 07:43:28;;;;;;;1.50;0.40;;;12.10;99.90;;;;;;5115637;28;21017;-72
2022/11/07 07:45:59;;;;;;;0.70;0.40;;;12.20;99.90;;;;;;5115495;28;20424;-72
2022/11/07 07:48:26;;;;;;;1.50;0.40;;;12.30;99.90;;;;;;5115708;28;20436;-71
2022/11/07 07:50:53;;;;;;;1.20;0.40;;;12.40;99.90;;;;;;5113900;28;20444;-72
2022/11/07 07:53:20;;;;;;;0.50;0.40;;;12.40;99.90;;;;;;5114499;28;20452;-72
2022/11/07 07:55:47;;;;;;;1.50;0.40;;;12.40;98.40;;;;;;5114917;28;20473;-72
2022/11/07 07:58:15;;;;;;;1.08;0.38;;;12.50;97.60;;;;;;5113707;28;20819;-71
2022/11/07 08:00:42;;;;;;;0.50;0.30;;;12.50;97.40;;;;;;5114624;28;20824;-71
2022/11/07 08:03:12;;;;;;;1.42;0.40;;;12.60;94.70;;;;;;5114542;28;20420;-71
2022/11/07 08:05:39;;;;;;;0.70;0.30;;;12.50;93.20;;;;;;5114772;28;20455;-71
2022/11/07 08:08:08;;;;;;;1.80;0.40;;;12.50;94.20;;;;;;5114257;28;20485;-71
2022/11/07 08:10:35;;;;;;;1.80;0.65;;;12.50;97.50;;;;;;5115610;28;20704;-71
2022/11/07 08:13:02;;;;;;;0.68;0.40;;;12.50;96.50;;;;;;5114366;28;20489;-72
2022/11/07 08:15:28;;;;;;;0.98;0.30;;;12.60;97.20;;;;;;5115180;28;20474;-71
2022/11/07 08:17:55;;;;;;;1.10;0.40;;;12.60;94.80;;;;;;5114191;28;20432;-72
2022/11/07 08:20:26;;;;;;;1.90;0.30;;;12.60;92.00;;;;;;5113276;28;20492;-71
2022/11/07 08:23:00;;;;;;;0.60;0.30;;;12.70;90.10;;;;;;5114903;28;20447;-71
2022/11/07 08:25:27;;;;;;;0.50;0.30;;;12.70;88.60;;;;;;5112371;28;20533;-71
2022/11/07 08:27:56;;;;;;;0.60;0.30;;;12.80;84.20;;;;;;5110799;28;20497;-72
2022/11/07 08:30:25;;;;;;;0.70;0.40;;;12.90;78.00;;;;;;5114868;28;20696;-71
2022/11/07 08:32:52;;;;;;;1.15;0.40;;;12.80;66.50;;;;;;5112898;28;20428;-72
2022/11/07 08:35:21;;;;;;;0.80;0.30;;;12.80;75.90;;;;;;5113904;28;20515;-72
2022/11/07 08:37:52;;;;;;;0.70;0.40;;;12.80;80.00;;;;;;5114981;28;20535;-71
2022/11/07 08:40:19;;;;;;;1.70;0.30;;;13.00;69.30;;;;;;5114848;28;20446;-71
2022/11/07 08:42:46;;;;;;;0.98;0.40;;;13.00;62.20;;;;;;5117976;28;20574;-71
2022/11/07 08:45:13;;;;;;;1.60;0.50;;;12.90;59.40;;;;;;5115363;28;21201;-72
2022/11/07 08:47:40;;;;;;;0.80;0.40;;;12.80;64.80;;;;;;5116039;28;20489;-71
2022/11/07 08:50:08;;;;;;;1.45;0.40;;;12.80;74.80;;;;;;5116551;28;20489;-72
2022/11/07 08:52:36;;;;;;;0.60;0.30;;;12.90;49.30;;;;;;5116739;28;20467;-72
2022/11/07 08:55:05;;;;;;;0.90;0.40;;;12.90;57.80;;;;;;5116145;28;20887;-72
2022/11/07 08:57:34;;;;;;;0.60;0.30;;;13.00;55.50;;;;;;5117617;28;20486;-72
2022/11/07 09:00:01;;;;;;;1.70;0.38;;;13.20;49.30;;;;;;5118859;28;20420;-72
2022/11/07 09:02:28;;;;;;;1.00;0.30;;;13.20;31.50;;;;;;5106572;28;20459;-71
2022/11/07 09:04:55;;;;;;;1.70;0.40;;;13.30;29.80;;;;;;5099443;28;20469;-71
2022/11/07 09:07:23;;;;;;;1.20;0.40;;;13.40;24.40;;;;;;5099380;28;20974;-72
2022/11/07 09:09:50;;;;;;;1.75;0.40;;;13.40;23.90;;;;;;5099644;28;20833;-71
2022/11/07 09:12:18;;;;;;;1.67;0.30;;;13.50;27.60;;;;;;5104150;28;20434;-73
2022/11/07 09:14:45;;;;;;;1.13;0.30;;;13.50;25.20;;;;;;5119044;28;20424;-72
2022/11/07 09:17:12;;;;;;;0.75;0.30;;;13.50;23.60;;;;;;5118450;28;21010;-73
2022/11/07 09:19:39;;;;;;;1.25;0.30;;;13.50;28.70;;;;;;5118814;28;20428;-72
2022/11/07 09:22:06;;;;;;;1.10;0.40;;;13.60;31.00;;;;;;5117846;28;20462;-72
2022/11/07 09:24:33;;;;;;;0.77;0.35;;;13.70;28.20;;;;;;5118557;28;20473;-71
2022/11/07 09:27:00;;;;;;;1.20;0.30;;;13.70;20.50;;;;;;5110531;28;20416;-71
2022/11/07 09:29:28;;;;;;;1.10;0.30;;;13.70;20.90;;;;;;5117417;28;20427;-72
2022/11/07 09:31:55;;;;;;;1.30;0.30;;;13.60;10.20;;;;;;5116967;28;20439;-73
2022/11/07 09:34:24;;;;;;;1.50;0.40;;;13.60;16.80;;;;;;5124442;27;20466;-73
2022/11/07 09:36:52;;;;;;;1.35;0.40;;;13.50;27.40;;;;;;5122427;27;20762;-70
2022/11/07 09:39:19;;;;;;;2.35;0.40;;;13.70;26.20;;;;;;5117430;28;21011;-72
2022/11/07 09:41:55;;;;;;;1.30;0.40;;;13.70;18.90;;;;;;5116984;28;20431;-72
2022/11/07 09:44:48;;;;;;;0.60;0.32;;;13.80;17.90;;;;;;5118603;28;20424;-73
2022/11/07 09:47:21;;;;;;;0.80;0.50;;;13.90;10.50;;;;;;5114431;28;20420;-72
2022/11/07 09:49:51;;;;;;;1.40;0.30;;;14.10;1.00;;;;;;5114195;28;20435;-73
2022/11/07 09:52:25;;;;;;;3.67;1.80;;;14.00;1.00;;;;;;5112146;28;20748;-71
2022/11/07 09:55:00;;;;;;;1.10;0.30;;;14.00;1.00;;;;;;5128577;27;20424;-72
2022/11/07 09:57:33;;;;;;;1.33;0.35;;;14.00;1.00;;;;;;5118316;28;20469;-72
2022/11/07 10:00:09;;;;;;;0.70;0.30;;;14.00;1.00;;;;;;5117760;28;20447;-71
2022/11/07 10:02:42;;;;;;;0.97;0.40;;;14.10;1.00;;;;;;5123178;28;20420;-72
2022/11/07 10:05:14;;;;;;;1.25;0.40;;;14.00;1.00;;;;;;5119886;28;20435;-70
2022/11/07 10:07:51;;;;;;;1.93;0.40;;;14.10;1.00;;;;;;5123075;27;20522;-70
2022/11/07 10:10:25;;;;;;;0.90;0.30;;;14.10;1.00;;;;;;5115703;28;20424;-71
2022/11/07 10:13:14;;;;;;;2.00;0.40;;;14.20;1.00;;;;;;5116286;28;20408;-73
2022/11/07 10:15:52;;;;;;;1.80;0.47;;;14.30;1.00;;;;;;5116526;28;20471;-72
2022/11/07 10:18:34;;;;;;;1.52;0.40;;;14.30;1.00;;;;;;5116224;28;20459;-71
2022/11/07 10:21:06;;;;;;;0.77;0.30;;;14.30;1.00;;;;;;5112102;28;20471;-71
2022/11/07 10:23:49;;;;;;;1.40;0.40;;;14.30;1.00;;;;;;5112795;28;20430;-72
2022/11/07 10:26:20;;;;;;;0.80;0.40;;;14.20;1.00;;;;;;5115527;28;20473;-71
2022/11/07 10:28:54;;;;;;;0.68;0.30;;;14.30;1.00;;;;;;5103695;28;20465;-72
2022/11/07 10:31:27;;;;;;;1.20;0.40;;;14.30;1.00;;;;;;5100482;28;21180;-73
2022/11/07 10:33:56;;;;;;;1.13;0.30;;;14.40;1.00;;;;;;5117103;28;20448;-72
2022/11/07 10:36:26;;;;;;;0.75;0.40;;;14.40;1.00;;;;;;5117107;28;20460;-71
2022/11/07 10:38:53;;;;;;;2.90;0.40;;;14.40;1.00;;;;;;5108817;28;20817;-71
2022/11/07 10:41:22;;;;;;;1.00;0.30;;;14.40;1.00;;;;;;5115247;28;20468;-72
2022/11/07 10:43:52;;;;;;;0.60;0.30;;;14.40;1.00;;;;;;5116892;28;20451;-71
2022/11/07 10:46:25;;;;;;;1.20;0.47;;;14.50;1.00;;;;;;5114955;28;20434;-72
2022/11/07 10:48:55;;;;;;;1.40;0.47;;;14.50;1.00;;;;;;5115876;28;20428;-73
2022/11/07 10:51:34;;;;;;;0.82;0.30;;;14.40;1.00;;;;;;5113579;28;20428;-72
2022/11/07 10:54:01;;;;;;;1.80;0.40;;;14.40;1.00;;;;;;5114815;28;20486;-72
2022/11/07 10:56:28;;;;;;;1.20;0.40;;;14.40;1.00;;;;;;5116016;28;20431;-73
2022/11/07 10:58:55;;;;;;;2.30;0.40;;;14.40;1.00;;;;;;5113899;28;20451;-72
2022/11/07 11:01:28;;;;;;;1.20;0.40;;;14.40;1.00;;;;;;5111296;28;20444;-71
2022/11/07 11:03:55;;;;;;;1.40;0.40;;;14.40;1.00;;;;;;5113781;28;20496;-71
2022/11/07 11:06:30;;;;;;;2.37;0.60;;;14.60;1.00;;;;;;5115658;28;20462;-72
2022/11/07 11:08:58;;;;;;;0.95;0.40;;;14.60;1.00;;;;;;5115800;28;20843;-72
2022/11/07 11:11:31;;;;;;;1.40;0.60;;;14.70;1.00;;;;;;5114473;28;20805;-72
2022/11/07 11:14:04;;;;;;;4.97;0.40;;;14.70;1.00;;;;;;5113980;28;20448;-73
2022/11/07 11:16:36;;;;;;;0.70;0.40;;;14.70;1.00;;;;;;5113296;28;20459;-72
2022/11/07 11:19:03;;;;;;;1.00;0.35;;;14.70;1.00;;;;;;5115771;28;20497;-72
2022/11/07 11:21:41;;;;;;;0.88;0.30;;;14.80;1.00;;;;;;5115198;28;20465;-72
2022/11/07 11:24:25;;;;;;;0.80;0.30;;;14.70;1.00;;;;;;5113933;28;20867;-72
2022/11/07 11:26:53;;;;;;;1.37;0.40;;;14.90;1.00;;;;;;5109890;28;20500;-71
2022/11/07 11:29:29;;;;;;;1.40;0.40;;;15.10;1.00;;;;;;5114369;28;20412;-72
2022/11/07 11:32:02;;;;;;;0.98;0.35;;;15.20;1.00;;;;;;5114474;28;20521;-71
2022/11/07 11:34:39;;;;;;;1.80;0.40;;;15.40;1.00;;;;;;5113274;28;20436;-72
2022/11/07 11:37:11;;;;;;;0.50;0.30;;;15.60;1.00;;;;;;5114284;28;20444;-73
2022/11/07 11:39:44;;;;;;;1.17;0.30;;;15.80;1.00;;;;;;5114067;28;20408;-73
2022/11/07 11:42:19;;;;;;;1.00;0.40;;;15.90;1.00;;;;;;5114869;28;20432;-72
2022/11/07 11:44:47;;;;;;;0.88;0.40;;;15.90;1.00;;;;;;5114088;28;20465;-72
2022/11/07 11:47:23;;;;;;;1.23;0.38;;;16.10;1.00;;;;;;5111221;28;20469;-71
2022/11/07 11:49:54;;;;;;;0.70;0.30;;;16.20;1.00;;;;;;5111349;27;20421;-74
2022/11/07 11:52:24;;;;;;;0.75;0.30;;;16.10;1.00;;;;;;5111593;27;20425;-72
2022/11/07 11:54:54;;;;;;;1.30;0.30;;;16.20;99.90;;;;;;5113363;28;20450;-73
2022/11/07 11:57:27;;;;;;;1.00;0.30;;;16.20;1.00;;;;;;5113431;28;20411;-74
2022/11/07 12:00:06;;;;;;;0.60;0.30;;;16.20;99.90;;;;;;5111798;28;20462;-73
2022/11/07 12:02:54;;;;;;;0.80;0.30;;;16.10;1.00;;;;;;5113327;28;20485;-71
2022/11/07 12:05:42;;;;;;;0.77;0.35;;;16.30;1.00;;;;;;5113695;28;20493;-73
2022/11/07 12:08:20;;;;;;;1.30;0.30;;;16.10;99.90;;;;;;5098290;28;20901;-72
2022/11/07 12:10:56;;;;;;;1.40;0.30;;;16.00;1.00;;;;;;5114172;28;20905;-72
2022/11/07 12:13:33;;;;;;;1.70;0.35;;;15.90;1.00;;;;;;5114034;28;20473;-72
2022/11/07 12:16:11;;;;;;;0.73;0.20;;;15.90;1.00;;;;;;5091945;28;20735;-74
2022/11/07 12:18:49;;;;;;;0.90;0.30;;;16.00;1.00;;;;;;5118112;28;20887;-73
2022/11/07 12:21:29;;;;;;;1.10;0.43;;;16.10;99.90;;;;;;5119206;28;20923;-72
2022/11/07 12:24:09;;;;;;;1.40;0.30;;;16.10;1.00;;;;;;5101310;28;21022;-72
2022/11/07 12:26:44;;;;;;;1.50;0.30;;;16.00;99.90;;;;;;5118346;28;20481;-74
2022/11/07 12:29:23;;;;;;;0.60;0.20;;;16.00;1.00;;;;;;5119189;28;20423;-73
2022/11/07 12:32:07;;;;;;;0.60;0.30;;;16.00;99.90;;;;;;5118557;28;20446;-74
2022/11/07 12:34:46;;;;;;;0.60;0.30;;;16.00;1.00;;;;;;5118243;28;20469;-73
2022/11/07 12:37:45;;;;;;;1.30;0.20;;;15.90;99.90;;;;;;5117679;28;20465;-72
2022/11/07 12:40:27;;;;;;;0.50;0.30;;;16.00;1.00;;;;;;5098074;28;20417;-72
2022/11/07 12:43:06;;;;;;;1.17;0.30;;;16.00;1.00;;;;;;5108473;27;20462;-73
2022/11/07 12:45:50;;;;;;;2.80;0.40;;;16.00;99.90;;;;;;5118515;28;21068;-73
2022/11/07 12:48:39;;;;;;;0.90;0.30;;;15.90;99.90;;;;;;5117811;28;20489;-72
2022/11/07 12:51:20;;;;;;;1.70;0.30;;;16.00;1.00;;;;;;5104216;28;20424;-72
2022/11/07 12:53:55;;;;;;;0.90;0.20;;;16.00;99.90;;;;;;5113737;28;20435;-73
2022/11/07 12:56:30;;;;;;;0.50;0.30;;;16.00;94.60;;;;;;5108760;28;20847;-73
2022/11/07 12:58:59;;;;;;;0.98;0.30;;;16.00;1.00;;;;;;5113825;28;20416;-73
2022/11/07 13:01:37;;;;;;;1.38;0.30;;;16.10;99.90;;;;;;5116942;28;20493;-73
2022/11/07 13:04:11;;;;;;;0.70;0.20;;;16.00;1.00;;;;;;5105486;28;20428;-73
2022/11/07 13:06:48;;;;;;;0.70;0.30;;;16.00;1.00;;;;;;5117979;28;20432;-72
2022/11/07 13:09:25;;;;;;;0.47;0.20;;;15.90;1.00;;;;;;5116692;28;20874;-72
2022/11/07 13:11:59;;;;;;;1.20;0.30;;;15.90;99.90;;;;;;5114933;27;20435;-72
2022/11/07 13:14:31;;;;;;;0.68;0.20;;;15.80;99.90;;;;;;5116776;28;20416;-73